createdAt,value
2019-01-18T00:01:31.929Z,99672.37
2019-01-18T00:04:01.403Z,99669.55
2019-01-18T00:06:30.899Z,99670.55
2019-01-18T00:09:00.427Z,99669.75
2019-01-18T00:11:31.652Z,99667.61
2019-01-18T00:14:01.155Z,99665.34
2019-01-18T00:16:30.602Z,99668.89
2019-01-18T00:19:00.005Z,99672.05
2019-01-18T00:21:29.506Z,99679.50
2019-01-18T00:23:59.057Z,99676.53
2019-01-18T00:26:28.456Z,99669.20
2019-01-18T00:28:57.864Z,99666.64
2019-01-18T00:31:27.412Z,99662.70
2019-01-18T00:33:56.894Z,99670.35
2019-01-18T00:36:26.288Z,99677.84
2019-01-18T00:38:55.718Z,99667.94
2019-01-18T00:41:25.214Z,99674.48
2019-01-18T00:43:54.721Z,99664.95
2019-01-18T00:46:24.157Z,99666.75
2019-01-18T00:48:53.657Z,99672.84
2019-01-18T00:51:23.041Z,99670.70
2019-01-18T00:53:52.464Z,99670.52
2019-01-18T00:56:21.962Z,99666.14
2019-01-18T00:58:51.474Z,99665.71
2019-01-18T01:01:20.895Z,99661.84
2019-01-18T01:03:50.513Z,99665.33
2019-01-18T01:06:19.963Z,99672.31
2019-01-18T01:08:51.108Z,99668.86
2019-01-18T01:11:21.541Z,99656.31
2019-01-18T01:13:50.931Z,99655.85
2019-01-18T01:16:20.466Z,99649.75
2019-01-18T01:18:49.959Z,99648.15
2019-01-18T01:21:19.346Z,99645.16
2019-01-18T01:23:48.770Z,99642.60
2019-01-18T01:26:18.354Z,99637.72
2019-01-18T01:28:47.865Z,99638.48
2019-01-18T01:31:17.466Z,99636.39
2019-01-18T01:33:46.967Z,99635.05
2019-01-18T01:36:16.478Z,99632.20
2019-01-18T01:38:45.920Z,99632.23
2019-01-18T01:41:15.395Z,99636.26
2019-01-18T01:43:44.901Z,99635.47
2019-01-18T01:46:14.363Z,99629.43
2019-01-18T01:48:43.748Z,99630.69
2019-01-18T01:51:13.247Z,99628.51
2019-01-18T01:53:43.796Z,99629.69
2019-01-18T01:56:13.182Z,99628.77
2019-01-18T01:58:42.638Z,99620.95
2019-01-18T02:01:12.196Z,99623.16
2019-01-18T02:03:41.679Z,99625.38
2019-01-18T02:06:11.063Z,99628.55
2019-01-18T02:08:40.792Z,99629.95
2019-01-18T02:11:10.266Z,99629.14
2019-01-18T02:13:39.730Z,99624.70
2019-01-18T02:16:09.272Z,99625.53
2019-01-18T02:18:38.774Z,99629.48
2019-01-18T02:21:08.175Z,99624.77
2019-01-18T02:23:37.616Z,99620.91
2019-01-18T02:26:07.219Z,99623.55
2019-01-18T02:28:36.703Z,99618.81
2019-01-18T02:31:06.230Z,99620.15
2019-01-18T02:33:35.614Z,99617.89
2019-01-18T02:36:05.097Z,99622.55
2019-01-18T02:38:34.629Z,99616.58
2019-01-18T02:41:04.036Z,99623.59
2019-01-18T02:43:33.436Z,99622.24
2019-01-18T02:46:03.174Z,99618.37
2019-01-18T02:48:32.655Z,99621.05
2019-01-18T02:51:02.042Z,99615.88
2019-01-18T02:53:31.487Z,99615.86
2019-01-18T02:56:00.976Z,99617.66
2019-01-18T02:58:30.466Z,99617.69
2019-01-18T03:00:59.908Z,99617.30
2019-01-18T03:03:29.285Z,99622.96
2019-01-18T03:05:58.783Z,99627.44
2019-01-18T03:08:28.319Z,99629.28
2019-01-18T03:10:57.696Z,99626.72
2019-01-18T03:13:27.183Z,99623.64
2019-01-18T03:15:56.703Z,99625.30
2019-01-18T03:18:26.198Z,99621.84
2019-01-18T03:20:55.582Z,99621.90
2019-01-18T03:23:25.030Z,99624.55
2019-01-18T03:25:54.535Z,99627.11
2019-01-18T03:28:23.926Z,99612.40
2019-01-18T03:30:53.651Z,99615.02
2019-01-18T03:33:23.152Z,99615.47
2019-01-18T03:35:52.570Z,99612.85
2019-01-18T03:38:22.068Z,99605.93
2019-01-18T03:40:51.551Z,99610.31
2019-01-18T03:43:21.027Z,99608.98
2019-01-18T03:45:50.459Z,99609.40
2019-01-18T03:48:19.868Z,99605.51
2019-01-18T03:50:49.387Z,99606.45
2019-01-18T03:53:19.101Z,99609.91
2019-01-18T03:55:48.516Z,99606.45
2019-01-18T03:58:17.903Z,99603.86
2019-01-18T04:00:47.626Z,99604.72
2019-01-18T04:03:17.142Z,99610.84
2019-01-18T04:05:46.566Z,99615.66
2019-01-18T04:08:16.107Z,99615.27
2019-01-18T04:10:45.489Z,99623.42
2019-01-18T04:13:14.897Z,99619.52
2019-01-18T04:15:44.527Z,99620.31
2019-01-18T04:18:14.038Z,99624.62
2019-01-18T04:20:43.448Z,99620.80
2019-01-18T04:23:12.888Z,99629.47
2019-01-18T04:25:42.467Z,99626.50
2019-01-18T04:28:11.952Z,99642.49
2019-01-18T04:30:41.381Z,99645.95
2019-01-18T04:33:10.792Z,99640.77
2019-01-18T04:35:40.290Z,99637.36
2019-01-18T04:38:11.324Z,99636.45
2019-01-18T04:40:40.812Z,99639.95
2019-01-18T04:43:10.215Z,99643.92
2019-01-18T04:45:40.070Z,99645.67
2019-01-18T04:48:09.440Z,99642.66
2019-01-18T04:50:39.018Z,99640.08
2019-01-18T04:53:08.543Z,99643.13
2019-01-18T04:55:37.946Z,99640.94
2019-01-18T04:58:07.442Z,99637.55
2019-01-18T05:00:41.078Z,99644.07
2019-01-18T05:03:08.184Z,99647.95
2019-01-18T05:05:37.586Z,99648.84
2019-01-18T05:08:07.021Z,99648.05
2019-01-18T05:10:36.507Z,99645.45
2019-01-18T05:13:06.134Z,99650.59
2019-01-18T05:15:35.586Z,99648.02
2019-01-18T05:18:05.053Z,99647.14
2019-01-18T05:20:34.538Z,99645.42
2019-01-18T05:23:04.066Z,99654.52
2019-01-18T05:25:33.438Z,99657.95
2019-01-18T05:28:02.960Z,99660.10
2019-01-18T05:30:32.399Z,99652.78
2019-01-18T05:33:01.785Z,99649.34
2019-01-18T05:35:31.380Z,99646.30
2019-01-18T05:38:01.139Z,99650.63
2019-01-18T05:40:31.726Z,99649.78
2019-01-18T05:43:01.179Z,99646.36
2019-01-18T05:45:30.745Z,99658.01
2019-01-18T05:48:00.245Z,99662.72
2019-01-18T05:50:30.620Z,99656.23
2019-01-18T05:53:04.116Z,99655.79
2019-01-18T05:55:33.616Z,99656.22
2019-01-18T05:58:03.301Z,99663.13
2019-01-18T06:00:46.395Z,99663.05
2019-01-18T06:03:15.798Z,99665.24
2019-01-18T06:05:45.720Z,99671.63
2019-01-18T06:08:15.451Z,99672.03
2019-01-18T06:10:44.954Z,99669.44
2019-01-18T06:13:14.451Z,99671.17
2019-01-18T06:15:43.957Z,99674.22
2019-01-18T06:18:13.359Z,99675.52
2019-01-18T06:20:42.965Z,99672.47
2019-01-18T06:23:12.685Z,99675.05
2019-01-18T06:26:36.049Z,99674.56
2019-01-18T06:29:05.811Z,99676.70
2019-01-18T06:31:35.392Z,99673.22
2019-01-18T06:34:04.892Z,99679.23
2019-01-18T06:36:34.484Z,99683.13
2019-01-18T06:39:05.423Z,99691.69
2019-01-18T06:41:41.897Z,99688.59
2019-01-18T06:44:11.397Z,99691.17
2019-01-18T06:46:40.828Z,99690.71
2019-01-18T06:49:11.443Z,99688.09
2019-01-18T06:51:41.357Z,99685.52
2019-01-18T06:54:10.768Z,99684.22
2019-01-18T06:56:40.434Z,99683.32
2019-01-18T06:59:09.948Z,99677.70
2019-01-18T07:04:44.938Z,99683.77
2019-01-18T07:07:15.052Z,99683.34
2019-01-18T07:09:44.615Z,99686.29
2019-01-18T07:12:14.142Z,99695.78
2019-01-18T07:14:44.257Z,99695.72
2019-01-18T07:17:13.783Z,99696.98
2019-01-18T07:19:43.579Z,99689.06
2019-01-18T07:22:13.004Z,99684.56
2019-01-18T07:24:42.649Z,99689.61
2019-01-18T07:27:12.208Z,99684.70
2019-01-18T07:29:41.639Z,99689.38
2019-01-18T07:32:11.320Z,99687.20
2019-01-18T07:34:41.148Z,99681.08
2019-01-18T07:37:11.036Z,99687.89
2019-01-18T07:39:40.509Z,99683.97
2019-01-18T07:42:10.057Z,99685.17
2019-01-18T07:44:39.552Z,99684.48
2019-01-18T07:47:08.962Z,99691.57
2019-01-18T07:49:41.000Z,99694.05
2019-01-18T07:52:10.814Z,99696.06
2019-01-18T07:54:40.316Z,99694.66
2019-01-18T07:57:11.095Z,99692.45
2019-01-18T07:59:43.287Z,99692.84
2019-01-18T08:02:12.807Z,99695.39
2019-01-18T08:04:42.368Z,99695.25
2019-01-18T08:07:11.872Z,99693.48
2019-01-18T08:09:41.301Z,99692.80
2019-01-18T08:12:11.178Z,99696.57
2019-01-18T08:14:40.721Z,99692.10
2019-01-18T08:17:12.101Z,99691.13
2019-01-18T08:19:42.040Z,99694.63
2019-01-18T08:22:11.571Z,99694.91
2019-01-18T08:24:41.528Z,99692.59
2019-01-18T08:27:11.542Z,99695.41
2019-01-18T08:29:41.162Z,99689.73
2019-01-18T08:32:10.660Z,99686.54
2019-01-18T08:34:40.376Z,99685.20
2019-01-18T08:37:09.857Z,99677.89
2019-01-18T08:39:39.287Z,99679.52
2019-01-18T08:42:08.877Z,99679.30
2019-01-18T08:44:38.410Z,99674.50
2019-01-18T08:47:10.235Z,99674.08
2019-01-18T08:49:40.006Z,99671.80
2019-01-18T08:52:09.757Z,99677.42
2019-01-18T08:54:39.269Z,99671.17
2019-01-18T08:57:09.036Z,99665.36
2019-01-18T08:59:38.627Z,99662.81
2019-01-18T09:02:08.987Z,99664.70
2019-01-18T09:04:42.837Z,99661.81
2019-01-18T09:07:12.399Z,99662.84
2019-01-18T09:09:41.932Z,99656.02
2019-01-18T09:12:11.417Z,99658.13
2019-01-18T09:14:40.886Z,99647.84
2019-01-18T09:17:10.400Z,99646.42
2019-01-18T09:19:40.234Z,99647.38
2019-01-18T09:22:09.629Z,99636.66
2019-01-18T09:24:39.066Z,99634.08
2019-01-18T09:27:08.947Z,99626.28
2019-01-18T09:29:38.586Z,99625.91
2019-01-18T09:32:08.209Z,99628.61
2019-01-18T09:34:38.186Z,99621.61
2019-01-18T09:37:07.787Z,99620.30
2019-01-18T09:39:37.383Z,99618.59
2019-01-18T09:42:13.537Z,99616.77
2019-01-18T09:44:43.362Z,99606.78
2019-01-18T09:47:12.784Z,99607.67
2019-01-18T09:49:42.879Z,99601.81
2019-01-18T09:52:12.633Z,99602.66
2019-01-18T09:54:42.280Z,99598.88
2019-01-18T09:57:11.810Z,99600.16
2019-01-18T09:59:41.212Z,99591.53
2019-01-18T10:02:10.870Z,99593.77
2019-01-18T10:04:40.428Z,99588.84
2019-01-18T10:07:09.851Z,99589.77
2019-01-18T10:09:39.379Z,99581.95
2019-01-18T10:12:08.840Z,99578.56
2019-01-18T10:14:38.340Z,99575.20
2019-01-18T10:17:07.865Z,99561.09
2019-01-18T10:19:37.427Z,99554.58
2019-01-18T10:22:06.930Z,99550.73
2019-01-18T10:24:36.456Z,99534.47
2019-01-18T10:27:05.984Z,99541.08
2019-01-18T10:29:35.496Z,99529.53
2019-01-18T10:32:05.841Z,99522.75
2019-01-18T10:34:36.490Z,99520.80
2019-01-18T10:37:06.240Z,99514.16
2019-01-18T10:39:35.843Z,99512.94
2019-01-18T10:42:05.283Z,99513.33
2019-01-18T10:44:34.701Z,99504.05
2019-01-18T10:47:04.183Z,99502.23
2019-01-18T10:49:33.662Z,99497.78
2019-01-18T10:52:03.258Z,99490.59
2019-01-18T10:54:32.757Z,99491.25
2019-01-18T10:57:02.251Z,99489.27
2019-01-18T10:59:31.646Z,99482.31
2019-01-18T11:02:07.276Z,99471.84
2019-01-18T11:04:32.669Z,99472.91
2019-01-18T11:07:02.141Z,99475.88
2019-01-18T11:09:31.547Z,99477.27
2019-01-18T11:12:01.080Z,99469.36
2019-01-18T11:14:30.623Z,99472.19
2019-01-18T11:17:00.000Z,99471.67
2019-01-18T11:19:29.611Z,99474.08
2019-01-18T11:21:59.311Z,99467.80
2019-01-18T11:24:28.801Z,99462.14
2019-01-18T11:26:58.258Z,99458.75
2019-01-18T11:29:27.728Z,99456.06
2019-01-18T11:31:57.139Z,99456.81
2019-01-18T11:34:26.601Z,99452.78
2019-01-18T11:36:57.354Z,99446.75
2019-01-18T11:39:27.345Z,99443.20
2019-01-18T11:41:56.960Z,99443.05
2019-01-18T11:44:26.454Z,99438.09
2019-01-18T11:46:55.941Z,99437.69
2019-01-18T11:49:25.482Z,99433.70
2019-01-18T11:51:54.882Z,99431.66
2019-01-18T11:54:24.325Z,99421.77
2019-01-18T11:56:53.969Z,99421.78
2019-01-18T11:59:23.542Z,99423.72
2019-01-18T12:01:53.007Z,99430.52
2019-01-18T12:04:22.481Z,99433.55
2019-01-18T12:06:51.988Z,99425.71
2019-01-18T12:09:21.436Z,99427.34
2019-01-18T12:11:51.031Z,99417.92
2019-01-18T12:14:20.513Z,99423.21
2019-01-18T12:16:49.932Z,99421.98
2019-01-18T12:19:19.392Z,99425.30
2019-01-18T12:21:48.893Z,99424.16
2019-01-18T12:24:18.743Z,99423.21
2019-01-18T12:26:48.196Z,99423.97
2019-01-18T12:29:17.613Z,99415.19
2019-01-18T12:31:47.117Z,99422.97
2019-01-18T12:34:17.012Z,99416.40
2019-01-18T12:36:46.408Z,99417.20
2019-01-18T12:39:15.878Z,99410.37
2019-01-18T12:41:45.438Z,99407.58
2019-01-18T12:44:15.068Z,99407.67
2019-01-18T12:46:44.441Z,99406.01
2019-01-18T12:49:13.975Z,99408.24
2019-01-18T12:51:43.415Z,99402.16
2019-01-18T12:54:12.867Z,99401.88
2019-01-18T12:56:42.426Z,99410.98
2019-01-18T12:59:11.961Z,99408.77
2019-01-18T13:01:41.368Z,99409.70
2019-01-18T13:04:10.886Z,99407.92
2019-01-18T13:06:40.421Z,99406.59
2019-01-18T13:09:09.906Z,99411.12
2019-01-18T13:11:39.599Z,99415.23
2019-01-18T13:14:09.051Z,99409.97
2019-01-18T13:16:43.937Z,99412.42
2019-01-18T13:19:24.346Z,99416.77
2019-01-18T13:21:54.096Z,99421.05
2019-01-18T13:24:23.584Z,99423.56
2019-01-18T13:26:53.199Z,99433.74
2019-01-18T13:29:22.745Z,99436.59
2019-01-18T13:31:52.139Z,99437.44
2019-01-18T13:34:21.666Z,99441.05
2019-01-18T13:36:51.220Z,99446.73
2019-01-18T13:39:20.816Z,99448.59
2019-01-18T13:41:50.243Z,99453.94
2019-01-18T13:44:19.966Z,99455.14
2019-01-18T13:46:49.571Z,99456.28
2019-01-18T13:49:19.056Z,99450.44
2019-01-18T13:51:48.557Z,99455.00
2019-01-18T13:54:17.991Z,99459.67
2019-01-18T13:56:47.570Z,99455.47
2019-01-18T13:59:17.138Z,99467.11
2019-01-18T14:01:46.552Z,99459.19
2019-01-18T14:04:15.985Z,99459.20
2019-01-18T14:06:45.612Z,99461.80
2019-01-18T14:09:15.051Z,99464.05
2019-01-18T14:11:44.540Z,99463.81
2019-01-18T14:14:14.136Z,99467.34
2019-01-18T14:16:43.582Z,99464.30
2019-01-18T14:19:13.017Z,99462.58
2019-01-18T14:21:42.579Z,99464.30
2019-01-18T14:24:12.080Z,99466.50
2019-01-18T14:26:41.494Z,99462.16
2019-01-18T14:29:11.016Z,99460.72
2019-01-18T14:31:40.528Z,99463.45
2019-01-18T14:34:10.014Z,99463.66
2019-01-18T14:36:39.581Z,99461.49
2019-01-18T14:39:11.568Z,99465.22
2019-01-18T14:41:41.158Z,99468.80
2019-01-18T14:44:10.698Z,99460.71
2019-01-18T14:46:40.138Z,99465.85
2019-01-18T14:49:09.641Z,99469.25
2019-01-18T14:51:39.579Z,99468.09
2019-01-18T14:54:08.979Z,99463.74
2019-01-18T14:56:38.466Z,99465.13
2019-01-18T14:59:08.130Z,99461.52
2019-01-18T15:01:37.617Z,99462.11
2019-01-18T15:04:07.021Z,99468.70
2019-01-18T15:06:36.583Z,99470.79
2019-01-18T15:09:10.417Z,99469.47
2019-01-18T15:11:39.853Z,99473.04
2019-01-18T15:14:09.534Z,99469.70
2019-01-18T15:16:39.060Z,99480.52
2019-01-18T15:19:08.730Z,99474.41
2019-01-18T15:21:38.458Z,99475.59
2019-01-18T15:24:07.896Z,99478.27
2019-01-18T15:26:37.400Z,99482.50
2019-01-18T15:29:07.009Z,99479.59
2019-01-18T15:31:36.513Z,99480.59
2019-01-18T15:34:06.231Z,99472.35
2019-01-18T15:36:35.886Z,99475.68
2019-01-18T15:39:09.644Z,99471.80
2019-01-18T15:41:39.201Z,99478.51
2019-01-18T15:44:08.833Z,99474.17
2019-01-18T15:46:38.288Z,99480.75
2019-01-18T15:49:07.701Z,99472.39
2019-01-18T15:51:37.264Z,99469.75
2019-01-18T15:54:06.746Z,99472.03
2019-01-18T15:56:36.174Z,99477.09
2019-01-18T15:59:05.838Z,99483.56
2019-01-18T16:01:35.364Z,99486.48
2019-01-18T16:04:04.967Z,99481.87
2019-01-18T16:06:34.469Z,99479.84
2019-01-18T16:09:07.056Z,99481.41
2019-01-18T16:11:36.476Z,99481.80
2019-01-18T16:14:06.868Z,99486.08
2019-01-18T16:16:47.426Z,99487.86
2019-01-18T16:19:17.046Z,99487.11
2019-01-18T16:21:47.652Z,99479.11
2019-01-18T16:24:17.050Z,99490.41
2019-01-18T16:26:46.792Z,99493.50
2019-01-18T16:29:16.250Z,99485.94
2019-01-18T16:31:45.766Z,99481.28
2019-01-18T16:34:15.427Z,99489.08
2019-01-18T16:36:44.936Z,99490.92
2019-01-18T16:39:14.411Z,99486.52
2019-01-18T16:41:43.902Z,99487.61
2019-01-18T16:44:13.300Z,99485.41
2019-01-18T16:46:42.880Z,99480.30
2019-01-18T16:49:12.376Z,99481.44
2019-01-18T16:51:41.885Z,99484.00
2019-01-18T16:54:11.360Z,99482.16
2019-01-18T16:56:40.890Z,99481.52
2019-01-18T16:59:10.271Z,99479.32
2019-01-18T17:01:39.767Z,99478.95
2019-01-18T17:04:10.502Z,99475.48
2019-01-18T17:06:39.925Z,99483.72
2019-01-18T17:09:09.921Z,99487.92
2019-01-18T17:11:39.447Z,99485.92
2019-01-18T17:14:08.932Z,99481.98
2019-01-18T17:16:44.774Z,99488.80
2019-01-18T17:19:09.566Z,99487.72
2019-01-18T17:21:39.059Z,99485.88
2019-01-18T17:24:08.617Z,99495.55
2019-01-18T17:26:38.205Z,99490.13
2019-01-18T17:29:07.750Z,99487.41
2019-01-18T17:31:37.164Z,99488.88
2019-01-18T17:34:07.142Z,99489.41
2019-01-18T17:37:04.252Z,99492.70
2019-01-18T17:40:06.270Z,99496.58
2019-01-18T17:43:07.913Z,99494.53
2019-01-18T17:46:00.468Z,99496.42
2019-01-18T17:49:07.257Z,99499.20
2019-01-18T17:52:29.887Z,99507.95
2019-01-18T17:55:17.994Z,99504.81
2019-01-18T17:58:04.723Z,99512.11
2019-01-18T18:00:57.625Z,99507.38
2019-01-18T18:03:58.525Z,99506.60
2019-01-18T18:06:42.210Z,99516.53
2019-01-18T18:09:26.301Z,99516.34
2019-01-18T18:12:08.776Z,99521.84
2019-01-18T18:15:03.670Z,99519.02
2019-01-18T18:18:01.271Z,99522.52
2019-01-18T18:20:55.739Z,99523.71
2019-01-18T18:24:03.108Z,99519.38
2019-01-18T18:27:08.256Z,99519.51
2019-01-18T18:30:30.287Z,99518.70
2019-01-18T18:33:41.970Z,99517.71
2019-01-18T18:36:48.157Z,99517.30
2019-01-18T18:40:10.438Z,99517.69
2019-01-18T18:43:44.954Z,99516.48
2019-01-18T18:46:59.771Z,99512.41
2019-01-18T18:50:13.233Z,99526.08
2019-01-18T18:53:26.836Z,99521.33
2019-01-18T18:56:24.789Z,99520.87
2019-01-18T18:59:47.972Z,99518.15
2019-01-18T19:02:39.685Z,99514.52
2019-01-18T19:05:45.732Z,99512.70
2019-01-18T19:08:59.687Z,99510.94
2019-01-18T19:11:46.358Z,99512.88
2019-01-18T19:14:54.076Z,99512.83
2019-01-18T19:18:07.253Z,99512.64
2019-01-18T19:21:17.664Z,99517.59
2019-01-18T19:24:22.320Z,99522.81
2019-01-18T19:27:40.870Z,99523.32
2019-01-18T19:31:12.335Z,99532.61
2019-01-18T19:34:25.283Z,99538.54
2019-01-18T19:37:09.645Z,99540.12
2019-01-18T19:40:01.185Z,99545.52
2019-01-18T19:43:23.222Z,99549.20
2019-01-18T19:46:09.233Z,99546.34
2019-01-18T19:49:31.678Z,99537.82
2019-01-18T19:52:29.498Z,99537.66
2019-01-18T19:55:20.494Z,99540.94
2019-01-18T19:58:39.560Z,99547.88
2019-01-18T20:01:36.552Z,99561.21
2019-01-18T20:04:20.262Z,99566.68
2019-01-18T20:07:30.976Z,99574.87
2019-01-18T20:10:40.194Z,99578.41
2019-01-18T20:13:56.307Z,99578.10
2019-01-18T20:16:50.726Z,99570.13
2019-01-18T20:20:16.367Z,99576.58
2019-01-18T20:27:13.207Z,99576.98
2019-01-18T20:30:25.306Z,99575.84
2019-01-18T20:33:34.058Z,99581.68
2019-01-18T20:36:31.688Z,99589.72
2019-01-18T20:39:32.186Z,99583.00
2019-01-18T20:42:33.816Z,99586.58
2019-01-18T20:45:32.535Z,99577.58
2019-01-18T20:48:27.815Z,99589.39
2019-01-18T20:51:44.066Z,99584.17
2019-01-18T20:55:05.620Z,99597.42
2019-01-18T20:58:07.372Z,99610.24
2019-01-18T21:00:58.659Z,99617.73
2019-01-18T21:04:00.135Z,99616.84
2019-01-18T21:07:01.685Z,99621.23
2019-01-18T21:09:55.275Z,99613.78
2019-01-18T21:12:52.959Z,99614.30
2019-01-18T21:16:18.178Z,99616.50
2019-01-18T21:19:00.568Z,99618.81
2019-01-18T21:22:03.766Z,99624.85
2019-01-18T21:24:53.780Z,99611.73
2019-01-18T21:27:44.866Z,99610.09
2019-01-18T21:31:07.456Z,99623.21
2019-01-18T21:34:10.166Z,99623.62
2019-01-18T21:37:26.540Z,99625.34
2019-01-18T21:40:45.854Z,99630.03
2019-01-18T21:43:47.772Z,99625.52
2019-01-18T21:46:49.485Z,99631.48
2019-01-18T21:50:06.015Z,99625.63
2019-01-18T21:53:12.878Z,99629.09
2019-01-18T21:56:06.627Z,99635.47
2019-01-18T21:59:07.593Z,99640.17
2019-01-18T22:02:01.446Z,99641.55
2019-01-18T22:04:48.425Z,99641.21
2019-01-18T22:07:59.802Z,99651.30
2019-01-18T22:11:03.326Z,99646.67
2019-01-18T22:13:52.738Z,99639.38
2019-01-18T22:17:21.009Z,99639.03
2019-01-18T22:20:35.108Z,99643.59
2019-01-18T22:23:31.211Z,99644.59
2019-01-18T22:26:51.156Z,99648.50
2019-01-18T22:29:37.941Z,99650.03
2019-01-18T22:32:38.172Z,99644.31
2019-01-18T22:35:51.957Z,99646.92
2019-01-18T22:38:56.022Z,99647.43
2019-01-18T22:42:12.334Z,99645.47
2019-01-18T22:45:21.514Z,99648.92
2019-01-18T22:48:07.617Z,99650.32
2019-01-18T22:51:08.416Z,99645.50
2019-01-18T22:54:29.415Z,99646.86
2019-01-18T22:57:19.666Z,99649.05
2019-01-18T23:00:47.524Z,99647.27
2019-01-18T23:03:39.813Z,99645.11
2019-01-18T23:06:37.331Z,99650.73
2019-01-18T23:09:42.584Z,99654.00
2019-01-18T23:12:45.020Z,99655.98
2019-01-18T23:16:13.242Z,99659.22
2019-01-18T23:19:01.466Z,99665.33
2019-01-18T23:21:56.307Z,99657.82
2019-01-18T23:24:41.193Z,99660.55
2019-01-18T23:27:59.190Z,99660.45
2019-01-18T23:30:45.226Z,99663.35
2019-01-18T23:33:57.531Z,99670.95
2019-01-18T23:37:07.286Z,99671.97
2019-01-18T23:40:03.885Z,99673.65
2019-01-18T23:42:52.509Z,99676.86
2019-01-18T23:45:54.238Z,99675.97
2019-01-18T23:49:04.993Z,99673.72
2019-01-18T23:52:22.035Z,99674.31
2019-01-18T23:55:21.263Z,99673.02
2019-01-18T23:58:11.531Z,99674.19
